الصفحة الرئيسية
METAR-TAF:

METAR-TAF

مطار :

Dalhart Municipal Airport

دالهارت, تكساس, الولايات المتحدة

دائرة عرض: 36-01-24N, خط طول: 102-32-50W, ارتفاع: 1216 متر

مراقبة الطقس الحالي

تاريخ ووقت الإصدار 44 دقيقة قبل الساعة 01:53UTC
ريح 8 عقدة من الشرق/الشمال الشرقي
درجة الحرارة 26°درجة مئوية
الرطوبة 48%
ضغط 1014 hPa
الرؤية: 16.1 كم
سماء صافية

METAR: KDHT 260153Z AUTO 07008KT 10SM CLR 26/14 A2993 RMK AO2 SLP078 T02610139

زمن: 21:37 (02:37 UTC)

توقعات

تاريخ ووقت الإصدار 3ساعات و 4 دقيقة قبل الساعة 23:33UTC
التوقعات صالحة من26 الساعة 00 UTC إلى 26 الساعة 24 UTC
ريح 9 عقدة من الشرق/الشمال الشرقي
الرؤية: 10 كم
سماء صافية
من 26 الساعة 1700 UTC
ريح 10 عقدة من الجنوب
الرؤية: 10 كم
سماء صافية

TAF: KDHT 252333Z 2600/2624 07009KT P6SM SKC FM261700 17010KT P6SM SKC

أرصاد الطقس والتوقعات من أكثر من 4000 مطار (تقارير الطقس للمطار METAR والتنبؤ بالطقس بالمطارTAF).

المحطات المتاحة هي النقط الصفراء والحمراء على الخريطة.

حرك المؤشر فوق النقطة لمعرفة اسم المحطة.

ثم انقر لمعرفة أرصاد وتوقعات الطقس.

لتغيير الخارطة: اضغط على الأزرار الخضراء مع رمز الصليب الأسود للتكبير. على الزر الأخضر مع شرطة للتصغير، أو على الأسهم الخضراء للخرائط المجاورة.


METAR-TAF: